Time;durP1;ratioP1;P1;durP2;ratioP2;P2;SDS_P1;SDS_P2;PMS_P1;PMS_P2;Temp;Humidity;BMP_temperature;BMP_pressure;BME280_temperature;BME280_humidity;BME280_pressure;Samples;Min_cycle;Max_cycle;Signal;HPM_P1;HPM_P2
2023/01/03 00:00:34;;;;;;;;;27.50;25.50;;;;;9.37;69.22;102545.50;1995705;28;2849172;-82
2023/01/03 00:01:45;;;;;;;;;32.00;30.00;;;;;9.37;68.93;102549.00;1994494;28;2838755;-82
2023/01/03 00:02:56;;;;;;;;;26.50;25.00;;;;;9.36;69.03;102544.59;1995997;28;2856510;-82
2023/01/03 00:04:09;;;;;;;;;24.60;24.20;;;;;9.36;68.93;102547.22;2004648;28;3598135;-82
2023/01/03 00:05:20;;;;;;;;;30.67;28.33;;;;;9.36;69.28;102555.09;1990188;27;3589902;-82
2023/01/03 00:06:35;;;;;;;;;34.60;29.80;;;;;9.34;68.97;102549.88;2043731;28;3572079;-82
2023/01/03 00:07:46;;;;;;;;;29.00;28.00;;;;;9.35;69.35;102550.75;2017755;28;2847112;-82
2023/01/03 00:09:00;;;;;;;;;30.20;25.20;;;;;9.35;69.30;102545.50;2012618;28;3600215;-82
2023/01/03 00:10:10;;;;;;;;;27.50;27.00;;;;;9.34;68.92;102554.22;1995390;28;2855472;-82
2023/01/03 00:12:59;;;;;;;;;29.50;26.00;;;;;9.36;69.50;102551.63;1993171;28;2851310;-82
2023/01/03 00:14:13;;;;;;;;;27.60;23.80;;;;;9.36;69.39;102552.47;2011768;28;3597082;-82
2023/01/03 00:15:24;;;;;;;;;26.00;24.50;;;;;9.36;69.67;102557.72;2017621;28;2840918;-82
2023/01/03 00:16:36;;;;;;;;;28.20;24.80;;;;;9.37;69.51;102554.25;2012377;28;3604361;-82
2023/01/03 00:17:50;;;;;;;;;24.00;24.00;;;;;9.37;69.57;102549.00;2000856;28;3584618;-82
2023/01/03 00:19:10;;;;;;;;;26.33;22.00;;;;;9.38;69.33;102556.00;2016605;28;3585004;-82
2023/01/03 00:20:21;;;;;;;;;29.50;26.50;;;;;9.38;69.24;102556.00;2017883;28;2858622;-82
2023/01/03 00:21:32;;;;;;;;;27.00;24.50;;;;;9.38;69.49;102556.00;1993196;28;2848150;-82
2023/01/03 00:22:44;;;;;;;;;29.00;22.80;;;;;9.38;69.45;102556.00;2005194;28;3588718;-82
2023/01/03 00:23:56;;;;;;;;;23.80;22.00;;;;;9.38;69.11;102556.00;2044488;28;3582472;-82
2023/01/03 00:25:08;;;;;;;;;26.40;25.60;;;;;9.40;69.76;102559.50;2031038;28;3600307;-82
2023/01/03 00:26:20;;;;;;;;;26.60;24.20;;;;;9.38;69.75;102550.75;1996594;28;3587700;-82
2023/01/03 00:27:32;;;;;;;;;26.60;23.00;;;;;9.38;69.51;102548.13;2005615;28;3593980;-82
2023/01/03 00:28:44;;;;;;;;;26.80;23.40;;;;;9.40;69.38;102554.25;2015004;28;3588729;-82
2023/01/03 00:29:55;;;;;;;;;24.33;23.00;;;;;9.40;69.60;102556.88;2009376;28;3574174;-82
2023/01/03 00:31:09;;;;;;;;;31.67;23.33;;;;;9.40;69.16;102554.25;2032523;28;3609698;-81
2023/01/03 00:32:20;;;;;;;;;27.00;23.00;;;;;9.40;69.73;102549.00;2018200;28;2852360;-82
2023/01/03 00:33:32;;;;;;;;;26.67;21.67;;;;;9.39;69.57;102552.50;1996392;28;3580444;-82
2023/01/03 00:34:45;;;;;;;;;19.00;18.33;;;;;9.41;69.66;102550.75;2034250;28;3573156;-82
2023/01/03 00:35:55;;;;;;;;;24.00;21.00;;;;;9.42;69.73;102552.50;2010321;28;2835693;-82
2023/01/03 00:37:07;;;;;;;;;22.00;18.33;;;;;9.43;69.37;102549.00;2031836;28;3579875;-82
2023/01/03 00:38:19;;;;;;;;;27.33;22.00;;;;;9.43;69.71;102543.75;2031329;28;3582547;-82
2023/01/03 00:39:32;;;;;;;;;21.17;20.17;;;;;9.44;69.67;102547.25;2049851;28;2834743;-82
2023/01/03 00:40:43;;;;;;;;;30.50;22.00;;;;;9.43;69.96;102538.50;1996075;28;2867402;-82
2023/01/03 00:41:55;;;;;;;;;18.00;15.00;;;;;9.44;69.75;102539.38;2009593;28;3554758;-82
2023/01/03 00:44:36;;;;;;;;;24.00;22.00;;;;;9.45;69.50;102547.28;2017645;28;2846093;-82
2023/01/03 00:45:48;;;;;;;;;19.33;19.33;;;;;9.46;69.54;102542.88;2031555;28;3574258;-82
2023/01/03 00:47:00;;;;;;;;;23.33;20.67;;;;;9.46;69.46;102542.88;2031490;28;3576308;-82
2023/01/03 00:48:12;;;;;;;;;21.33;19.33;;;;;9.45;69.72;102549.00;2009111;28;3577359;-82
2023/01/03 00:49:24;;;;;;;;;19.33;19.00;;;;;9.45;69.58;102543.75;2024608;28;3571608;-82
2023/01/03 00:50:36;;;;;;;;;20.67;18.00;;;;;9.47;69.51;102542.00;2022142;28;3574229;-82
2023/01/03 00:51:47;;;;;;;;;15.00;13.50;;;;;9.47;69.90;102543.75;2015582;28;2802323;-82
2023/01/03 00:52:59;;;;;;;;;19.80;19.20;;;;;9.48;69.98;102543.78;2033220;28;3587772;-82
2023/01/03 00:54:13;;;;;;;;;20.50;19.33;;;;;9.48;69.89;102545.50;2050222;28;2841913;-82
2023/01/03 00:55:24;;;;;;;;;17.33;17.33;;;;;9.49;69.43;102539.38;1991398;28;3577319;-82
2023/01/03 00:56:40;;;;;;;;;19.00;18.00;;;;;9.49;69.78;102539.38;2031628;28;3568974;-82
2023/01/03 00:57:51;;;;;;;;;23.67;17.67;;;;;9.49;69.79;102542.00;2015995;28;3573176;-82
2023/01/03 00:59:03;;;;;;;;;23.00;17.67;;;;;9.50;69.69;102541.13;2032761;28;3572126;-82
2023/01/03 01:00:15;;;;;;;;;19.67;19.00;;;;;9.50;70.18;102542.03;2022437;28;3579410;-82
2023/01/03 01:01:38;;;;;;;;;21.00;19.00;;;;;9.52;69.87;102544.63;2026662;28;2837750;-82
2023/01/03 01:02:52;;;;;;;;;18.17;13.83;;;;;9.52;69.97;102542.00;2024387;28;1835730;-82
2023/01/03 01:04:10;;;;;;;;;21.00;17.00;;;;;9.52;69.72;102542.88;1993781;28;3562833;-82
2023/01/03 01:05:22;;;;;;;;;19.60;18.00;;;;;9.53;69.67;102541.16;2034590;28;2830469;-82
2023/01/03 01:06:39;;;;;;;;;16.40;16.40;;;;;9.53;69.76;102538.53;2006960;28;2824204;-82
2023/01/03 01:07:53;;;;;;;;;16.50;16.00;;;;;9.54;70.02;102542.88;2022252;28;1831643;-82
2023/01/03 01:09:06;;;;;;;;;19.33;18.00;;;;;9.53;69.87;102538.53;1992987;28;3559950;-82
2023/01/03 01:10:19;;;;;;;;;20.00;15.50;;;;;9.53;69.83;102534.13;2014788;28;2821087;-82
2023/01/03 01:11:31;;;;;;;;;19.33;15.00;;;;;9.54;69.74;102543.75;1998957;28;2814952;-82
2023/01/03 01:12:42;;;;;;;;;17.00;15.67;;;;;9.54;69.90;102540.25;2015804;28;3554448;-82
2023/01/03 01:13:54;;;;;;;;;16.25;14.50;;;;;9.55;69.75;102542.03;2044192;28;1831612;-82
2023/01/03 01:15:05;;;;;;;;;20.00;14.67;;;;;9.55;70.02;102542.03;1992195;28;2824231;-82
2023/01/03 01:16:20;;;;;;;;;18.67;16.67;;;;;9.55;70.07;102549.91;2015555;28;3567928;-82
2023/01/03 01:17:31;;;;;;;;;14.00;14.00;;;;;9.56;70.04;102543.75;2016321;28;2808615;-82
2023/01/03 01:18:44;;;;;;;;;17.67;15.67;;;;;9.55;69.99;102540.28;2007478;28;2825257;-82
2023/01/03 01:19:58;;;;;;;;;19.00;17.14;;;;;9.56;69.89;102543.75;2044441;28;1839820;-82
2023/01/03 01:21:14;;;;;;;;;16.40;15.20;;;;;9.56;69.92;102547.25;2043603;28;2817290;-82
2023/01/03 01:22:24;;;;;;;;;19.00;14.00;;;;;9.57;69.48;102553.41;1998680;28;2805416;-82
2023/01/03 01:23:38;;;;;;;;;15.00;14.00;;;;;9.58;70.01;102552.50;2015498;28;2803384;-82
2023/01/03 01:24:51;;;;;;;;;14.33;13.83;;;;;9.58;69.81;102549.88;2024024;28;1831611;-82
2023/01/03 01:26:04;;;;;;;;;15.00;15.00;;;;;9.59;69.71;102542.88;1993419;28;2819024;-82
2023/01/03 01:27:17;;;;;;;;;14.83;14.00;;;;;9.57;69.33;102540.28;2023950;28;1830581;-82
2023/01/03 01:28:28;;;;;;;;;14.50;11.00;;;;;9.57;69.56;102546.41;1993744;28;2789846;-82
2023/01/03 01:29:38;;;;;;;;;17.00;16.00;;;;;9.58;69.83;102544.63;1996778;28;2826274;-82
2023/01/03 01:30:49;;;;;;;;;17.00;13.50;;;;;9.59;69.47;102548.13;2010159;28;2803404;-82
2023/01/03 01:32:02;;;;;;;;;16.67;16.67;;;;;9.58;69.75;102547.25;2010402;28;2829479;-82
2023/01/03 01:33:13;;;;;;;;;15.50;15.00;;;;;9.59;69.74;102548.13;2028273;28;1847148;-82
2023/01/03 01:34:26;;;;;;;;;17.00;14.50;;;;;9.58;69.67;102552.50;2046833;28;1821162;-82
2023/01/03 01:35:37;;;;;;;;;14.00;13.00;;;;;9.59;69.87;102546.38;1992965;28;2808603;-82
2023/01/03 01:36:48;;;;;;;;;17.00;16.50;;;;;9.60;69.85;102553.41;2008602;28;2826280;-82
2023/01/03 01:37:59;;;;;;;;;14.00;13.00;;;;;9.60;69.50;102550.78;2007572;28;2794141;-82
2023/01/03 01:39:29;;;;;;;;;15.50;14.00;;;;;9.58;69.66;102552.50;2007829;28;2804429;-82
2023/01/03 01:40:40;;;;;;;;;15.00;13.50;;;;;9.58;69.59;102555.13;2012086;28;2806537;-82
2023/01/03 01:45:02;;;;;;;;;17.00;12.00;;;;;9.56;69.75;102543.75;1992200;28;2814864;-82
2023/01/03 01:46:31;;;;;;;;;9.50;8.67;;;;;9.55;69.77;102550.78;2020796;28;2744025;-82
2023/01/03 01:47:55;;;;;;;;;13.83;13.00;;;;;9.56;69.84;102554.25;2024093;28;1819042;-82
2023/01/03 01:49:13;;;;;;;;;16.00;13.00;;;;;9.57;69.99;102566.53;1993234;28;2807566;-82
2023/01/03 01:50:25;;;;;;;;;13.75;13.00;;;;;9.56;69.71;102560.38;2005342;28;1839906;-82
2023/01/03 01:51:35;;;;;;;;;15.00;13.00;;;;;9.57;69.86;102553.41;2015527;28;2797146;-82
2023/01/03 01:52:50;;;;;;;;;17.00;13.25;;;;;9.56;69.81;102563.00;2018942;28;1836855;-82
2023/01/03 01:54:03;;;;;;;;;16.00;14.00;;;;;9.56;69.59;102563.00;2016159;28;2804434;-82
2023/01/03 01:55:19;;;;;;;;;15.00;13.00;;;;;9.57;69.72;102561.28;1991768;28;2796088;-82
2023/01/03 01:56:35;;;;;;;;;17.00;14.00;;;;;9.56;69.55;102562.13;1993274;28;2813145;-82
2023/01/03 01:57:46;;;;;;;;;12.00;8.33;;;;;9.55;69.82;102553.41;2007621;28;1833588;-82
2023/01/03 01:58:59;;;;;;;;;15.40;12.60;;;;;9.55;69.64;102557.78;2020913;28;1833695;-82
2023/01/03 02:00:10;;;;;;;;;13.75;13.75;;;;;9.57;69.92;102556.03;2003942;28;1840870;-82
2023/01/03 02:01:23;;;;;;;;;14.00;14.00;;;;;9.56;69.81;102560.38;2015548;28;2808639;-82
2023/01/03 02:02:34;;;;;;;;;16.00;14.00;;;;;9.56;69.44;102560.38;1991620;28;2814837;-82
2023/01/03 02:03:54;;;;;;;;;14.00;12.00;;;;;9.55;69.48;102563.91;2032735;28;2788805;-82
2023/01/03 02:05:07;;;;;;;;;14.00;13.00;;;;;9.56;69.71;102559.50;2015256;28;2788793;-82
2023/01/03 02:06:18;;;;;;;;;13.00;12.00;;;;;9.55;69.73;102563.91;2016106;28;2801305;-82
2023/01/03 02:07:29;;;;;;;;;12.00;11.00;;;;;9.56;69.88;102575.25;2015927;27;2787766;-82
2023/01/03 02:08:40;;;;;;;;;12.50;12.50;;;;;9.56;69.87;102575.25;2046531;28;1819036;-82
2023/01/03 02:09:54;;;;;;;;;14.50;13.50;;;;;9.55;70.10;102577.03;1992362;28;2812774;-82
2023/01/03 02:11:26;;;;;;;;;13.00;13.00;;;;;9.54;69.70;102572.63;1992590;28;2778413;-82
2023/01/03 02:13:07;;;;;;;;;16.00;11.00;;;;;9.54;69.76;102571.75;2015994;28;2817969;-82
2023/01/03 02:14:35;;;;;;;;;13.00;11.50;;;;;9.53;69.68;102575.28;2006187;28;1846169;-82
2023/01/03 02:15:48;;;;;;;;;13.50;13.00;;;;;9.53;69.68;102572.66;2015616;28;2789910;-82
2023/01/03 02:17:30;;;;;;;;;14.50;13.00;;;;;9.52;69.86;102573.50;2015599;28;2808603;-82
2023/01/03 02:19:03;;;;;;;;;17.00;13.00;;;;;9.52;69.51;102568.25;1991710;28;2813804;-82
2023/01/03 02:20:33;;;;;;;;;12.25;10.00;;;;;9.51;69.48;102577.88;2020540;28;1842340;-82
2023/01/03 02:22:02;;;;;;;;;13.00;11.00;;;;;9.50;69.76;102576.16;2008104;28;2797186;-82
2023/01/03 02:23:25;;;;;;;;;12.50;11.50;;;;;9.50;69.62;102576.16;2012951;28;2805538;-82
2023/01/03 02:25:05;;;;;;;;;15.25;11.00;;;;;9.48;69.83;102583.16;2026667;28;1846106;-82
2023/01/03 02:26:37;;;;;;;;;9.67;8.00;;;;;9.48;69.40;102588.41;2016981;28;2752781;-82
2023/01/03 02:28:15;;;;;;;;;14.00;12.50;;;;;9.47;69.55;102583.13;2015854;28;2801297;-82
2023/01/03 02:29:47;;;;;;;;;3.33;1.00;;;;;9.45;69.57;102586.63;2045354;28;2737770;-82
2023/01/03 02:31:23;;;;;;;;;13.00;12.00;;;;;9.44;69.71;102579.63;2015888;28;2803384;-82
2023/01/03 02:32:49;;;;;;;;;13.00;11.00;;;;;9.45;69.86;102584.00;2006433;28;1836716;-82
2023/01/03 02:34:08;;;;;;;;;11.00;11.00;;;;;9.44;69.58;102579.63;1991742;28;3537877;-82
2023/01/03 02:35:19;;;;;;;;;16.00;13.00;;;;;9.43;69.58;102577.88;2014690;28;2805554;-82
2023/01/03 02:36:39;;;;;;;;;15.67;13.33;;;;;9.43;69.62;102580.50;2046277;28;1854486;-82
2023/01/03 02:38:22;;;;;;;;;15.67;13.17;;;;;9.42;69.77;102584.00;2022318;28;1824335;-82
2023/01/03 02:39:47;;;;;;;;;11.67;10.67;;;;;9.42;69.92;102586.63;1993182;28;3527328;-82
2023/01/03 02:41:31;;;;;;;;;13.00;13.00;;;;;9.42;69.61;102591.00;2014985;28;2797165;-82
2023/01/03 02:42:57;;;;;;;;;14.00;10.50;;;;;9.41;69.79;102590.13;2012623;28;2788848;-82
2023/01/03 02:44:21;;;;;;;;;12.00;11.00;;;;;9.39;69.53;102588.34;2029904;28;1841920;-82
2023/01/03 02:46:00;;;;;;;;;13.75;11.00;;;;;9.38;69.68;102587.50;2029955;28;1840939;-82
2023/01/03 02:47:14;;;;;;;;;10.67;9.00;;;;;9.38;69.59;102589.25;2015840;28;3488789;-82
2023/01/03 02:48:47;;;;;;;;;11.75;10.25;;;;;9.38;69.90;102587.50;2022496;28;1845074;-82
2023/01/03 02:50:04;;;;;;;;;8.83;8.17;;;;;9.37;69.56;102591.00;2039888;28;2744022;-82
2023/01/03 02:51:37;;;;;;;;;12.00;10.00;;;;;9.37;69.60;102590.09;2015056;28;3510687;-82
2023/01/03 02:52:51;;;;;;;;;12.00;12.00;;;;;9.36;69.92;102585.75;2014855;28;2791925;-82
2023/01/03 02:54:06;;;;;;;;;13.00;11.00;;;;;9.37;69.37;102587.47;2015119;28;3509621;-82
2023/01/03 02:55:21;;;;;;;;;14.33;11.33;;;;;9.36;69.63;102581.34;2015288;28;3520037;-82
2023/01/03 02:56:58;;;;;;;;;12.00;10.75;;;;;9.36;69.52;102588.38;2031274;28;1841925;-82
2023/01/03 02:58:14;;;;;;;;;12.00;9.33;;;;;9.34;69.81;102583.09;2012506;28;3494017;-82
2023/01/03 02:59:39;;;;;;;;;11.25;9.00;;;;;9.34;69.66;102580.47;2028677;28;1835824;-82
2023/01/03 03:00:58;;;;;;;;;9.67;9.00;;;;;9.34;69.68;102583.97;2009397;28;2764967;-82
2023/01/03 03:02:11;;;;;;;;;10.33;9.33;;;;;9.34;69.85;102580.47;2008128;28;3489808;-82
2023/01/03 03:03:28;;;;;;;;;11.25;11.00;;;;;9.34;69.67;102576.13;2027141;28;1833066;-82
2023/01/03 03:04:43;;;;;;;;;7.50;7.50;;;;;9.35;69.91;102592.75;2043675;28;2744006;-82
2023/01/03 03:06:06;;;;;;;;;11.00;10.00;;;;;9.36;70.09;102585.75;2015976;28;3511704;-82
2023/01/03 03:07:31;;;;;;;;;9.00;8.33;;;;;9.36;70.34;102580.50;2017204;28;3467953;-82
2023/01/03 03:08:46;;;;;;;;;11.33;11.33;;;;;9.37;69.91;102582.22;2015742;28;3517959;-82
2023/01/03 03:13:13;;;;;;;;;11.75;11.75;;;;;9.35;70.08;102579.63;2007273;28;1841912;-82
2023/01/03 03:14:43;;;;;;;;;9.67;9.00;;;;;9.35;69.89;102582.25;2017341;28;2744176;-82
2023/01/03 03:16:00;;;;;;;;;9.33;9.33;;;;;9.33;69.65;102584.00;2016249;28;3470062;-82
2023/01/03 03:17:16;;;;;;;;;10.00;7.00;;;;;9.32;69.97;102584.84;2017218;28;2753404;-82
2023/01/03 03:18:57;;;;;;;;;12.00;10.00;;;;;9.32;69.71;102587.47;2016050;28;3513775;-82
2023/01/03 03:24:50;;;;;;;;;9.50;8.33;;;;;9.32;70.22;102574.34;2043710;28;2744023;-82
2023/01/03 03:26:10;;;;;;;;;9.67;9.67;;;;;9.32;69.73;102574.34;1991197;28;3501285;-82
2023/01/03 03:29:02;;;;;;;;;9.50;8.83;;;;;9.32;69.74;102585.72;2044580;28;2733099;-82
2023/01/03 03:30:21;;;;;;;;;9.17;9.17;;;;;9.32;69.70;102580.47;2019998;28;2737768;-83
2023/01/03 03:31:40;;;;;;;;;11.00;11.00;;;;;9.32;70.16;102582.22;1994315;28;3513827;-82
2023/01/03 03:32:56;;;;;;;;;9.00;9.00;;;;;9.30;69.52;102581.34;2018306;28;2742000;-82
2023/01/03 03:34:17;;;;;;;;;11.67;9.00;;;;;9.31;69.96;102580.50;2019157;28;2769751;-82
2023/01/03 03:35:29;;;;;;;;;9.67;9.00;;;;;9.28;69.41;102576.13;2009091;28;3475236;-82
2023/01/03 03:36:59;;;;;;;;;9.67;9.67;;;;;9.29;69.86;102582.22;2015925;28;2769124;-82
2023/01/03 03:38:14;;;;;;;;;10.50;8.50;;;;;9.26;70.00;102580.44;2032397;28;1839894;-82
2023/01/03 03:46:13;;;;;;;;;12.00;11.00;;;;;9.18;69.13;102588.34;2017060;28;3509626;-82
2023/01/03 03:47:27;;;;;;;;;8.00;8.00;;;;;9.17;69.39;102593.56;2018572;28;3460020;-82
2023/01/03 03:50:33;;;;;;;;;11.33;11.33;;;;;9.11;69.45;102590.03;2008547;28;3504401;-82
2023/01/03 03:51:46;;;;;;;;;10.67;10.67;;;;;9.11;69.78;102591.81;2018150;28;3513788;-82
2023/01/03 03:53:02;;;;;;;;;11.67;10.67;;;;;9.10;69.40;102590.03;2015746;28;3521048;-82
2023/01/03 03:54:20;;;;;;;;;9.33;8.33;;;;;9.09;69.54;102585.66;2018365;28;2755594;-82
2023/01/03 03:55:38;;;;;;;;;10.00;8.00;;;;;9.08;69.44;102586.53;2020396;28;2756506;-82
2023/01/03 03:56:56;;;;;;;;;10.00;9.67;;;;;9.06;69.55;102585.66;2023248;28;3504382;-82
2023/01/03 03:58:18;;;;;;;;;11.00;8.00;;;;;9.05;69.35;102590.03;2017682;28;3477310;-82
2023/01/03 03:59:30;;;;;;;;;15.00;10.00;;;;;9.05;69.62;102589.16;2016013;28;3516909;-82
2023/01/03 04:00:44;;;;;;;;;12.50;11.00;;;;;9.04;69.63;102592.66;2015935;28;2786706;-82
2023/01/03 04:01:58;;;;;;;;;10.00;10.00;;;;;9.03;69.76;102589.16;2016121;28;3517958;-82
2023/01/03 04:03:11;;;;;;;;;10.33;9.00;;;;;9.03;69.84;102593.53;2016909;28;3490302;-82
2023/01/03 04:04:27;;;;;;;;;10.67;8.67;;;;;9.03;70.03;102586.53;2018198;28;3475734;-82
2023/01/03 04:05:44;;;;;;;;;15.00;12.33;;;;;9.03;69.81;102591.78;2016811;28;3539808;-82
2023/01/03 04:06:55;;;;;;;;;12.67;10.33;;;;;9.04;69.76;102584.78;2016786;28;3511709;-82
2023/01/03 04:08:06;;;;;;;;;14.00;12.00;;;;;9.05;70.08;102590.03;2029882;28;2787766;-82
2023/01/03 04:09:18;;;;;;;;;13.00;11.00;;;;;9.06;69.53;102585.66;2016276;28;3510070;-82
2023/01/03 04:10:29;;;;;;;;;11.00;9.75;;;;;9.07;70.18;102587.41;2006392;28;1835787;-82
2023/01/03 04:11:41;;;;;;;;;15.25;10.75;;;;;9.09;70.31;102590.91;2029752;28;1838371;-82
2023/01/03 04:12:53;;;;;;;;;12.00;10.50;;;;;9.11;70.13;102589.19;2036161;28;1834708;-82
2023/01/03 04:14:03;;;;;;;;;13.00;11.00;;;;;9.10;70.25;102587.41;2023586;28;2776317;-82
2023/01/03 04:15:15;;;;;;;;;10.60;10.60;;;;;9.11;70.28;102589.19;2046716;28;1825294;-82
2023/01/03 04:16:26;;;;;;;;;13.00;13.00;;;;;9.14;70.43;102590.91;2016743;28;2783593;-82
2023/01/03 04:17:37;;;;;;;;;15.00;13.00;;;;;9.13;70.34;102592.69;2033676;28;2797142;-82
2023/01/03 04:18:48;;;;;;;;;14.00;12.67;;;;;9.16;70.83;102597.91;2009104;28;3522062;-82
2023/01/03 04:19:59;;;;;;;;;16.00;14.00;;;;;9.17;70.72;102597.06;2031833;28;2823186;-82
2023/01/03 04:21:10;;;;;;;;;11.00;10.50;;;;;9.19;70.49;102597.06;2007558;28;2779463;-82
2023/01/03 04:22:21;;;;;;;;;14.00;14.00;;;;;9.20;70.79;102594.47;2032358;28;2798163;-82
2023/01/03 04:23:32;;;;;;;;;14.00;13.00;;;;;9.21;70.77;102595.34;2033027;28;2802366;-82
2023/01/03 04:24:43;;;;;;;;;11.67;8.33;;;;;9.22;70.70;102594.44;2009153;28;2767952;-82
2023/01/03 04:25:54;;;;;;;;;12.00;12.00;;;;;9.25;70.45;102594.47;2034597;28;2807559;-82
2023/01/03 04:27:05;;;;;;;;;10.00;9.00;;;;;9.27;70.48;102594.47;2033724;28;3480464;-82
2023/01/03 04:28:17;;;;;;;;;13.00;13.00;;;;;9.27;70.42;102595.34;2031978;28;2806513;-82
2023/01/03 04:29:28;;;;;;;;;11.75;9.75;;;;;9.29;70.92;102597.97;2031250;28;1840914;-82
2023/01/03 04:30:39;;;;;;;;;13.00;10.00;;;;;9.29;71.04;102593.59;2016332;28;2781521;-82
2023/01/03 04:31:50;;;;;;;;;12.75;11.00;;;;;9.31;70.45;102597.09;2045063;28;1819559;-82
2023/01/03 04:33:04;;;;;;;;;14.00;13.00;;;;;9.32;71.15;102593.59;1993465;28;2796093;-82
2023/01/03 04:34:14;;;;;;;;;11.67;11.00;;;;;9.34;70.61;102598.84;2016527;28;3527325;-82
2023/01/03 04:35:25;;;;;;;;;9.00;8.33;;;;;9.34;70.72;102594.47;2026358;28;3454438;-82
2023/01/03 04:36:36;;;;;;;;;11.00;9.00;;;;;9.36;70.58;102597.09;2032400;28;3487772;-82
2023/01/03 04:37:47;;;;;;;;;13.00;10.00;;;;;9.38;70.77;102600.63;2032995;28;2781514;-82
2023/01/03 04:38:59;;;;;;;;;11.50;11.00;;;;;9.39;70.45;102601.47;2040397;28;1840934;-82
2023/01/03 04:40:10;;;;;;;;;13.00;12.00;;;;;9.40;70.91;102598.88;2015728;28;2793996;-82
2023/01/03 04:41:21;;;;;;;;;9.50;9.50;;;;;9.42;70.70;102598.88;2009123;28;1818049;-82
2023/01/03 04:44:01;;;;;;;;;12.00;10.00;;;;;9.44;71.04;102607.63;2008081;28;2788821;-82
2023/01/03 04:45:13;;;;;;;;;14.00;11.50;;;;;9.44;70.85;102611.13;2008796;28;1844070;-82
2023/01/03 04:46:24;;;;;;;;;9.67;8.67;;;;;9.47;70.53;102614.63;2015712;28;2749191;-82
2023/01/03 04:47:34;;;;;;;;;10.67;10.67;;;;;9.47;70.80;102607.63;2027872;28;3515219;-82
2023/01/03 04:48:46;;;;;;;;;12.00;10.00;;;;;9.49;70.66;102615.50;2048267;28;1846075;-82
2023/01/03 04:49:58;;;;;;;;;11.00;11.00;;;;;9.50;70.89;102618.16;2029926;28;1838858;-82
2023/01/03 04:51:08;;;;;;;;;12.67;11.00;;;;;9.52;70.81;102618.13;2015871;28;3513784;-82
2023/01/03 04:52:19;;;;;;;;;16.50;9.00;;;;;9.53;70.94;102617.28;2024205;28;2787763;-82
2023/01/03 04:53:31;;;;;;;;;11.25;11.25;;;;;9.55;70.24;102620.78;2046399;28;1846150;-82
2023/01/03 04:54:42;;;;;;;;;15.50;11.00;;;;;9.54;70.52;102622.53;2015405;28;2803710;-82
2023/01/03 04:55:58;;;;;;;;;12.40;12.00;;;;;9.56;70.32;102622.50;2024928;28;1825812;-82
2023/01/03 04:57:11;;;;;;;;;9.67;9.50;;;;;9.56;70.57;102622.50;2044443;28;2750283;-82
2023/01/03 04:58:21;;;;;;;;;13.00;13.00;;;;;9.55;70.11;102618.16;1994348;28;3508628;-82
2023/01/03 04:59:33;;;;;;;;;12.00;11.50;;;;;9.54;70.40;102619.91;2028997;28;2784666;-82
2023/01/03 05:00:44;;;;;;;;;11.00;10.00;;;;;9.55;70.68;102623.41;2018602;28;3505430;-82
2023/01/03 05:01:55;;;;;;;;;14.75;13.00;;;;;9.56;70.64;102625.13;2031132;28;1849226;-82
2023/01/03 05:03:06;;;;;;;;;16.67;13.67;;;;;9.58;70.50;102626.00;2008651;28;3538794;-82
2023/01/03 05:04:17;;;;;;;;;10.00;10.00;;;;;9.61;70.75;102627.75;1993587;28;2786734;-82
2023/01/03 05:05:28;;;;;;;;;12.25;11.00;;;;;9.62;70.92;102630.41;2039327;28;1843006;-82
2023/01/03 05:06:39;;;;;;;;;11.00;10.00;;;;;9.64;70.79;102635.66;2015746;28;2779754;-82
2023/01/03 05:07:50;;;;;;;;;16.00;13.67;;;;;9.67;70.81;102640.91;2010402;28;3533567;-82
2023/01/03 05:09:01;;;;;;;;;12.67;11.67;;;;;9.67;70.54;102628.66;2046715;28;1837824;-82
2023/01/03 05:10:14;;;;;;;;;15.00;12.17;;;;;9.69;70.63;102636.53;2017039;28;1828568;-82
2023/01/03 05:11:25;;;;;;;;;11.00;11.00;;;;;9.70;70.30;102635.69;1985512;28;2786742;-82
2023/01/03 05:12:36;;;;;;;;;12.00;9.50;;;;;9.71;70.21;102639.16;2032152;28;2777382;-83
2023/01/03 05:13:47;;;;;;;;;12.00;10.00;;;;;9.72;70.20;102633.03;2026141;28;2786687;-82
2023/01/03 05:14:58;;;;;;;;;10.00;10.00;;;;;9.73;70.46;102634.81;2006256;28;2784654;-82
2023/01/03 05:16:13;;;;;;;;;13.25;13.25;;;;;9.73;70.51;102634.81;2020998;28;1836841;-82
2023/01/03 05:17:24;;;;;;;;;12.00;11.00;;;;;9.74;70.38;102641.78;2016574;28;2789862;-82
2023/01/03 05:18:37;;;;;;;;;12.00;12.00;;;;;9.74;70.44;102641.78;2046713;28;1840952;-82
2023/01/03 05:26:13;;;;;;;;;16.00;13.00;;;;;9.78;70.05;102638.28;2007267;28;2803399;-82
2023/01/03 05:27:24;;;;;;;;;13.00;12.00;;;;;9.78;70.15;102643.53;2007223;28;2790924;-82
2023/01/03 05:28:35;;;;;;;;;18.50;13.00;;;;;9.77;70.47;102637.44;2015437;28;2819064;-82
2023/01/03 05:29:49;;;;;;;;;17.00;12.50;;;;;9.79;70.15;102642.69;1980350;28;2790888;-82
2023/01/03 05:31:00;;;;;;;;;11.33;9.33;;;;;9.79;70.27;102645.31;1999746;28;3492244;-82
2023/01/03 05:32:11;;;;;;;;;10.67;9.33;;;;;9.78;70.47;102644.44;2027844;28;2772293;-82
2023/01/03 05:33:22;;;;;;;;;8.33;8.00;;;;;9.78;70.58;102649.69;2041633;28;2728390;-82
2023/01/03 05:34:32;;;;;;;;;10.67;8.67;;;;;9.79;70.33;102642.69;1989071;28;3482519;-82
2023/01/03 05:35:46;;;;;;;;;9.00;7.67;;;;;9.81;70.83;102651.44;2043378;28;2740917;-82
2023/01/03 05:36:57;;;;;;;;;11.67;9.00;;;;;9.82;70.89;102657.56;1994530;28;3480884;-82
2023/01/03 05:38:08;;;;;;;;;10.67;8.00;;;;;9.83;70.90;102654.09;2033030;28;2767010;-82
2023/01/03 05:39:19;;;;;;;;;9.00;8.00;;;;;9.83;70.87;102651.47;2042675;28;2746135;-82
2023/01/03 05:40:30;;;;;;;;;8.67;7.00;;;;;9.83;70.98;102652.31;1995322;28;2744003;-82
2023/01/03 05:41:58;;;;;;;;;9.00;8.67;;;;;9.85;71.17;102650.56;2017832;28;2759640;-82
2023/01/03 05:43:09;;;;;;;;;10.33;7.67;;;;;9.88;71.09;102652.31;2016900;28;3468416;-82
2023/01/03 05:44:20;;;;;;;;;8.67;7.67;;;;;9.89;70.69;102646.19;2043501;28;2739833;-82
2023/01/03 05:45:31;;;;;;;;;14.00;14.00;;;;;9.90;70.75;102655.84;1994490;28;2810497;-82
2023/01/03 05:46:42;;;;;;;;;11.75;10.00;;;;;9.92;70.86;102654.09;2049601;28;1844088;-82
2023/01/03 05:47:56;;;;;;;;;9.67;8.00;;;;;9.93;70.78;102652.31;2018990;28;2754435;-82
2023/01/03 05:49:07;;;;;;;;;12.00;7.00;;;;;9.95;70.82;102647.97;2016723;28;3485770;-82
2023/01/03 05:50:19;;;;;;;;;7.00;6.40;;;;;9.96;70.65;102649.69;2043968;28;2736719;-82
2023/01/03 05:51:30;;;;;;;;;10.00;9.00;;;;;9.96;70.86;102652.31;2017612;28;2765987;-82
2023/01/03 05:52:41;;;;;;;;;7.00;7.00;;;;;9.97;70.81;102648.84;2029464;28;2746481;-82
2023/01/03 05:53:52;;;;;;;;;8.67;6.00;;;;;9.98;71.06;102646.19;2042493;28;2745064;-82
2023/01/03 05:55:05;;;;;;;;;10.00;8.33;;;;;9.99;70.98;102652.34;2021578;28;2738788;-82
2023/01/03 05:56:16;;;;;;;;;10.00;9.33;;;;;10.00;71.16;102649.69;1992655;28;3485691;-82
2023/01/03 05:57:27;;;;;;;;;10.00;8.00;;;;;10.01;70.99;102643.56;2032759;28;3485668;-82
2023/01/03 05:58:38;;;;;;;;;11.33;8.00;;;;;10.02;71.00;102647.09;2031512;28;3485712;-82
2023/01/03 05:59:49;;;;;;;;;8.75;7.75;;;;;10.04;71.03;102647.06;2040569;28;2746110;-82
2023/01/03 06:01:07;;;;;;;;;9.00;8.00;;;;;10.05;71.06;102640.97;2018419;28;2746106;-82
2023/01/03 06:02:18;;;;;;;;;10.33;8.33;;;;;10.06;70.65;102647.94;2018484;28;2762814;-82
2023/01/03 06:03:29;;;;;;;;;7.00;6.00;;;;;10.05;70.71;102641.81;2042461;28;2748181;-82
2023/01/03 06:04:39;;;;;;;;;12.33;10.33;;;;;10.06;70.84;102642.69;1992253;28;3515215;-82
2023/01/03 06:05:50;;;;;;;;;8.00;7.00;;;;;10.08;70.80;102647.06;2043029;28;2732554;-82
2023/01/03 06:07:04;;;;;;;;;9.33;9.33;;;;;10.09;70.45;102647.94;2020867;28;2746119;-82
2023/01/03 06:08:15;;;;;;;;;18.50;16.00;;;;;10.05;70.35;102644.44;1986484;28;2822150;-82
2023/01/03 06:09:26;;;;;;;;;10.00;7.00;;;;;10.04;70.24;102654.94;2033332;28;3478369;-82
2023/01/03 06:10:39;;;;;;;;;8.50;8.00;;;;;10.03;70.39;102646.19;2051380;27;2731590;-82